Time;durP1;ratioP1;P1;durP2;ratioP2;P2;SDS_P1;SDS_P2;PMS_P1;PMS_P2;Temp;Humidity;BMP_temperature;BMP_pressure;BME280_temperature;BME280_humidity;BME280_pressure;Samples;Min_cycle;Max_cycle;Signal;HPM_P1;HPM_P2
2022/07/30 00:02:15;;;;;;;7.40;6.23;;;17.50;99.90;;;;;;4930351;29;20520;-73
2022/07/30 00:04:41;;;;;;;7.37;6.30;;;17.50;99.90;;;;;;4931680;29;20429;-74
2022/07/30 00:07:07;;;;;;;7.27;6.30;;;17.40;99.90;;;;;;4931194;29;20471;-73
2022/07/30 00:09:33;;;;;;;8.90;6.80;;;17.40;99.90;;;;;;4931076;29;20457;-73
2022/07/30 00:11:58;;;;;;;6.80;6.20;;;17.40;99.90;;;;;;4915091;29;20459;-73
2022/07/30 00:14:25;;;;;;;7.97;6.50;;;17.40;99.90;;;;;;4915751;29;20177;-71
2022/07/30 00:16:51;;;;;;;7.03;6.40;;;17.40;99.90;;;;;;4931450;29;20193;-73
2022/07/30 00:19:16;;;;;;;8.10;5.73;;;17.40;99.90;;;;;;4932847;29;20414;-73
2022/07/30 00:21:42;;;;;;;6.50;5.90;;;17.40;99.90;;;;;;4930200;29;20556;-72
2022/07/30 00:24:07;;;;;;;7.80;7.00;;;17.50;99.90;;;;;;4931439;29;20176;-72
2022/07/30 00:26:33;;;;;;;10.93;7.03;;;17.50;99.90;;;;;;4932525;29;20531;-73
2022/07/30 00:29:00;;;;;;;7.23;6.30;;;17.50;99.90;;;;;;4931393;29;20185;-71
2022/07/30 00:31:25;;;;;;;11.47;7.07;;;17.60;99.90;;;;;;4930003;29;20288;-72
2022/07/30 00:33:51;;;;;;;7.87;6.63;;;17.50;99.90;;;;;;4931412;29;20837;-72
2022/07/30 00:36:16;;;;;;;6.40;5.70;;;17.60;99.90;;;;;;4931343;29;20181;-73
2022/07/30 00:38:42;;;;;;;9.63;6.23;;;17.70;99.90;;;;;;4931122;29;20702;-73
2022/07/30 00:41:08;;;;;;;7.03;6.37;;;17.70;99.90;;;;;;4929948;29;20201;-72
2022/07/30 00:43:34;;;;;;;11.93;7.47;;;17.80;99.90;;;;;;4931270;29;20212;-73
2022/07/30 00:45:59;;;;;;;9.47;6.50;;;17.80;99.90;;;;;;4932793;29;20595;-74
2022/07/30 00:48:25;;;;;;;7.30;6.70;;;17.80;99.90;;;;;;4931443;29;20508;-72
2022/07/30 00:50:50;;;;;;;6.93;6.43;;;17.90;99.90;;;;;;4930101;29;20651;-72
2022/07/30 00:53:16;;;;;;;7.23;6.50;;;17.90;99.90;;;;;;4915336;29;20394;-73
2022/07/30 00:55:42;;;;;;;7.00;6.30;;;18.00;99.90;;;;;;4931598;29;20189;-74
2022/07/30 00:58:07;;;;;;;7.03;6.53;;;18.00;99.90;;;;;;4915393;29;20192;-73
2022/07/30 02:30:54;;;;;;;5.00;4.70;;;17.10;99.90;;;;;;5928737;23;20380;-70
2022/07/30 02:33:32;;;;;;;5.23;4.83;;;17.00;99.90;;;;;;4942538;29;20807;-71
2022/07/30 02:35:58;;;;;;;6.30;5.80;;;16.90;99.90;;;;;;4951744;29;20424;-72
2022/07/30 02:38:26;;;;;;;9.93;5.93;;;16.90;99.90;;;;;;4953570;29;20404;-71
2022/07/30 02:40:57;;;;;;;5.07;4.70;;;16.90;99.90;;;;;;4952402;28;20847;-72
2022/07/30 02:43:24;;;;;;;5.37;4.93;;;16.90;99.90;;;;;;4953227;29;20530;-71
2022/07/30 02:45:51;;;;;;;4.90;4.50;;;16.80;99.90;;;;;;4952717;29;20428;-72
2022/07/30 02:48:19;;;;;;;5.40;5.00;;;16.80;99.90;;;;;;4953258;29;20559;-71
2022/07/30 02:50:47;;;;;;;5.90;5.30;;;16.80;99.90;;;;;;4952255;28;20420;-69
2022/07/30 02:53:14;;;;;;;5.50;4.70;;;16.80;99.90;;;;;;4953265;29;20427;-71
2022/07/30 02:55:42;;;;;;;6.07;5.47;;;16.70;99.90;;;;;;4952727;28;20454;-72
2022/07/30 02:58:09;;;;;;;6.33;4.83;;;16.70;99.90;;;;;;4952893;29;20440;-71
2022/07/30 03:00:36;;;;;;;4.67;4.30;;;16.80;99.90;;;;;;4951813;29;20427;-68
2022/07/30 03:03:06;;;;;;;5.17;4.83;;;16.70;99.90;;;;;;4951899;29;20466;-72
2022/07/30 03:05:33;;;;;;;5.80;5.30;;;16.70;99.90;;;;;;4838551;29;20774;-73
2022/07/30 03:07:59;;;;;;;5.80;5.13;;;16.70;99.90;;;;;;4847052;29;20810;-77
2022/07/30 03:10:26;;;;;;;5.10;4.70;;;16.70;99.90;;;;;;4846393;29;20903;-74
2022/07/30 03:12:53;;;;;;;5.87;5.10;;;16.70;99.90;;;;;;4866569;29;20776;-75
2022/07/30 03:15:19;;;;;;;5.30;4.80;;;16.60;99.90;;;;;;4835897;29;21134;-74
2022/07/30 03:17:51;;;;;;;5.80;4.43;;;16.60;99.90;;;;;;4834650;29;20711;-73
2022/07/30 03:20:20;;;;;;;5.70;5.20;;;16.60;99.90;;;;;;4836015;29;20957;-73
2022/07/30 03:22:50;;;;;;;6.93;5.50;;;16.60;99.90;;;;;;4836268;28;20744;-73
2022/07/30 03:25:23;;;;;;;5.60;5.20;;;16.60;99.90;;;;;;4823327;29;20790;-73
2022/07/30 03:27:49;;;;;;;6.67;5.50;;;16.60;99.90;;;;;;4839160;28;21201;-72
2022/07/30 03:30:16;;;;;;;5.33;5.00;;;16.50;99.90;;;;;;4838905;29;20775;-72
2022/07/30 03:32:42;;;;;;;6.93;5.50;;;16.50;99.90;;;;;;4840803;28;20611;-71
2022/07/30 03:35:09;;;;;;;5.80;5.40;;;16.50;99.90;;;;;;4840579;29;21074;-71
2022/07/30 03:37:38;;;;;;;7.63;5.60;;;16.40;99.90;;;;;;4850164;29;20953;-71
2022/07/30 03:40:06;;;;;;;6.27;5.67;;;16.40;99.90;;;;;;4841771;29;20778;-73
2022/07/30 03:42:33;;;;;;;5.70;5.30;;;16.30;99.90;;;;;;4837104;28;20755;-74
2022/07/30 03:45:06;;;;;;;5.47;4.97;;;16.30;99.90;;;;;;4835243;29;21062;-74
2022/07/30 03:47:33;;;;;;;6.50;5.87;;;16.30;99.90;;;;;;4833001;29;20778;-74
2022/07/30 03:49:59;;;;;;;6.40;5.77;;;16.20;99.90;;;;;;4836600;29;20597;-74
2022/07/30 03:52:29;;;;;;;5.73;5.13;;;16.20;99.90;;;;;;4836935;29;21325;-74
2022/07/30 03:54:55;;;;;;;6.53;5.10;;;16.10;99.90;;;;;;4836980;29;20825;-74
2022/07/30 03:57:21;;;;;;;4.93;4.63;;;16.10;99.90;;;;;;4840451;29;20821;-74
2022/07/30 03:59:50;;;;;;;6.63;6.07;;;16.10;99.90;;;;;;4834777;29;20771;-74
2022/07/30 04:02:16;;;;;;;6.97;5.90;;;16.10;99.90;;;;;;4834133;29;20893;-73
2022/07/30 04:04:42;;;;;;;7.33;5.50;;;16.10;99.90;;;;;;4836466;29;21217;-75
2022/07/30 04:07:09;;;;;;;11.03;5.90;;;16.10;99.90;;;;;;4817474;29;20921;-73
2022/07/30 04:09:35;;;;;;;6.13;5.67;;;16.10;99.90;;;;;;4832367;29;20847;-74
2022/07/30 04:12:01;;;;;;;8.07;6.20;;;16.00;99.90;;;;;;4832830;29;21228;-74
2022/07/30 04:14:39;;;;;;;7.03;5.90;;;16.00;99.90;;;;;;4834498;29;20999;-74
2022/07/30 04:17:16;;;;;;;9.70;6.97;;;16.00;99.90;;;;;;4832066;29;21325;-74
2022/07/30 04:20:00;;;;;;;6.77;5.63;;;16.00;99.90;;;;;;4831851;29;20948;-73
2022/07/30 04:22:35;;;;;;;5.57;5.17;;;15.90;99.90;;;;;;4832721;29;20953;-73
2022/07/30 04:25:05;;;;;;;7.47;6.73;;;15.90;99.90;;;;;;4834825;29;20766;-73
2022/07/30 04:27:31;;;;;;;6.60;5.60;;;15.90;99.90;;;;;;4832633;29;20812;-73
2022/07/30 04:29:57;;;;;;;7.93;5.60;;;15.80;99.90;;;;;;4835865;29;20937;-74
2022/07/30 04:32:23;;;;;;;5.50;5.10;;;15.80;99.90;;;;;;4834764;29;21035;-74
2022/07/30 04:34:51;;;;;;;5.07;4.70;;;15.90;99.90;;;;;;4840858;29;20574;-74
2022/07/30 04:37:20;;;;;;;6.67;5.70;;;15.90;99.90;;;;;;4834509;29;20518;-74
2022/07/30 04:39:48;;;;;;;7.63;5.03;;;15.80;99.90;;;;;;4836629;28;20924;-74
2022/07/30 04:42:15;;;;;;;5.47;5.00;;;15.80;99.90;;;;;;4823414;29;20835;-74
2022/07/30 04:44:41;;;;;;;7.93;5.47;;;15.90;99.90;;;;;;4843790;29;20764;-74
2022/07/30 04:47:07;;;;;;;6.20;5.60;;;15.90;99.90;;;;;;4849332;29;20871;-75
2022/07/30 04:49:34;;;;;;;6.30;5.43;;;15.90;99.90;;;;;;4838582;29;21115;-74
2022/07/30 04:52:02;;;;;;;5.23;4.83;;;15.90;99.90;;;;;;4837679;29;20704;-74
2022/07/30 04:54:39;;;;;;;6.17;5.63;;;16.00;99.90;;;;;;4839936;29;20789;-74
2022/07/30 04:57:06;;;;;;;6.73;6.10;;;16.00;99.90;;;;;;4810190;29;20819;-73
2022/07/30 04:59:33;;;;;;;6.30;5.70;;;16.10;99.90;;;;;;4825925;29;21180;-74
2022/07/30 05:02:00;;;;;;;5.90;5.47;;;16.10;99.90;;;;;;4814556;29;21023;-74
2022/07/30 05:04:27;;;;;;;6.50;6.00;;;16.20;99.90;;;;;;4839358;29;20570;-74
2022/07/30 05:06:55;;;;;;;6.57;5.73;;;16.30;99.90;;;;;;4842672;29;21115;-73
2022/07/30 05:09:22;;;;;;;5.77;5.20;;;16.40;99.90;;;;;;4837368;29;20831;-73
2022/07/30 05:11:52;;;;;;;6.77;5.37;;;16.50;99.90;;;;;;4917822;29;21051;-72
2022/07/30 05:14:19;;;;;;;6.37;5.30;;;16.60;99.90;;;;;;4954971;29;20948;-71
2022/07/30 05:16:45;;;;;;;6.93;5.30;;;16.70;99.90;;;;;;4954741;29;20499;-72
2022/07/30 05:19:11;;;;;;;9.10;5.57;;;16.90;99.90;;;;;;4954409;29;20933;-73
2022/07/30 05:21:36;;;;;;;6.47;5.47;;;17.10;99.90;;;;;;4952506;28;20204;-72
2022/07/30 05:24:02;;;;;;;6.20;5.70;;;17.40;99.90;;;;;;4953788;29;20428;-73
2022/07/30 05:26:28;;;;;;;5.50;5.00;;;17.80;99.90;;;;;;4953411;29;20196;-71
2022/07/30 05:28:53;;;;;;;7.40;6.60;;;18.30;99.90;;;;;;4953514;29;20521;-73
2022/07/30 05:31:19;;;;;;;7.23;5.07;;;18.90;99.90;;;;;;4935514;29;20204;-73
2022/07/30 05:33:44;;;;;;;6.90;5.07;;;19.50;99.90;;;;;;4937410;29;20196;-73
2022/07/30 05:36:10;;;;;;;9.73;5.60;;;20.10;99.90;;;;;;4953332;29;20188;-73
2022/07/30 05:38:36;;;;;;;10.50;4.60;;;20.70;99.90;;;;;;4952852;29;20263;-71
2022/07/30 05:41:02;;;;;;;5.10;4.63;;;21.20;99.90;;;;;;4953429;29;20232;-73
2022/07/30 05:43:27;;;;;;;4.73;4.33;;;21.70;99.90;;;;;;4952569;29;20502;-74
2022/07/30 05:45:53;;;;;;;4.60;4.20;;;22.20;99.90;;;;;;4952965;29;20602;-73
2022/07/30 05:48:19;;;;;;;5.10;4.60;;;22.60;99.90;;;;;;4952522;29;20255;-74
2022/07/30 05:50:44;;;;;;;8.93;4.43;;;22.80;99.90;;;;;;4950637;28;20685;-74
2022/07/30 05:53:10;;;;;;;6.37;4.30;;;23.10;99.90;;;;;;4952449;29;20557;-74
2022/07/30 05:55:35;;;;;;;5.40;4.90;;;23.30;99.90;;;;;;4953113;29;20176;-76
2022/07/30 05:58:01;;;;;;;8.33;4.77;;;23.50;99.90;;;;;;4952819;29;20177;-74
2022/07/30 06:00:26;;;;;;;10.57;4.23;;;23.70;99.90;;;;;;4954210;29;20188;-75
2022/07/30 06:02:52;;;;;;;4.50;4.00;;;23.90;99.90;;;;;;4936370;29;20213;-75
2022/07/30 06:05:18;;;;;;;6.70;4.07;;;24.10;99.90;;;;;;4953084;29;20184;-74
2022/07/30 06:07:44;;;;;;;9.13;5.77;;;24.40;99.90;;;;;;4951974;29;20184;-75
2022/07/30 06:10:09;;;;;;;7.47;4.83;;;24.40;99.90;;;;;;4953547;29;20408;-74
2022/07/30 06:12:35;;;;;;;5.00;4.60;;;24.40;99.90;;;;;;4942078;29;20566;-75
2022/07/30 06:15:00;;;;;;;8.67;4.57;;;24.70;99.90;;;;;;4953698;29;20192;-75
2022/07/30 06:17:26;;;;;;;7.00;4.80;;;24.80;99.90;;;;;;4953204;29;20183;-75
2022/07/30 06:19:52;;;;;;;11.13;4.40;;;24.90;99.90;;;;;;4953678;29;20176;-78
2022/07/30 06:22:17;;;;;;;6.93;4.37;;;25.10;99.90;;;;;;4952022;29;20208;-74
2022/07/30 06:24:43;;;;;;;8.20;4.10;;;25.30;99.90;;;;;;4959635;29;20248;-74
2022/07/30 06:27:08;;;;;;;8.80;4.37;;;25.30;99.90;;;;;;4957939;29;20255;-75
2022/07/30 06:29:35;;;;;;;7.47;5.13;;;25.40;99.90;;;;;;4953809;29;20196;-75
2022/07/30 06:32:00;;;;;;;4.93;4.43;;;25.40;99.90;;;;;;4953407;28;20660;-75
2022/07/30 06:34:26;;;;;;;6.00;4.93;;;25.50;99.90;;;;;;4954187;29;20436;-75
2022/07/30 06:36:52;;;;;;;6.80;4.33;;;25.60;99.90;;;;;;4953671;29;20264;-75
2022/07/30 06:39:18;;;;;;;9.57;3.63;;;25.70;99.90;;;;;;4953187;29;20243;-75
2022/07/30 06:41:44;;;;;;;6.27;4.00;;;25.90;99.90;;;;;;4954118;29;20441;-74
2022/07/30 06:44:10;;;;;;;13.10;5.07;;;26.10;99.90;;;;;;4954705;29;20176;-74
2022/07/30 06:46:35;;;;;;;4.67;4.27;;;26.10;99.90;;;;;;4953467;29;21004;-69
2022/07/30 06:49:01;;;;;;;5.97;4.40;;;26.10;99.90;;;;;;4952784;29;20419;-71
2022/07/30 06:51:27;;;;;;;5.27;4.33;;;26.20;99.90;;;;;;4953423;28;20184;-72
2022/07/30 06:53:52;;;;;;;7.40;4.43;;;26.40;99.90;;;;;;4954652;29;20173;-72
2022/07/30 06:56:18;;;;;;;6.37;4.17;;;26.40;99.90;;;;;;4953754;29;20195;-71
2022/07/30 06:58:43;;;;;;;7.30;4.53;;;26.40;99.90;;;;;;4953567;29;20230;-72
2022/07/30 07:01:09;;;;;;;4.60;3.87;;;26.50;99.90;;;;;;4953064;28;20196;-72
2022/07/30 07:03:34;;;;;;;7.47;4.53;;;26.70;99.90;;;;;;4953244;29;20204;-71
2022/07/30 07:06:00;;;;;;;8.77;5.67;;;26.70;99.90;;;;;;4953140;29;20259;-72
2022/07/30 07:08:25;;;;;;;5.30;4.63;;;26.50;99.90;;;;;;4952062;29;20622;-73
2022/07/30 07:10:51;;;;;;;5.97;5.37;;;26.80;99.90;;;;;;4950830;28;20177;-74
2022/07/30 07:13:16;;;;;;;6.77;4.57;;;26.80;99.90;;;;;;4952979;29;20580;-70
2022/07/30 07:15:42;;;;;;;8.80;4.17;;;27.20;99.90;;;;;;4952811;29;20181;-73
2022/07/30 07:18:07;;;;;;;7.13;5.20;;;27.40;99.90;;;;;;4953071;29;20533;-74
2022/07/30 07:20:34;;;;;;;6.27;4.30;;;27.50;99.90;;;;;;4949925;29;20272;-71
2022/07/30 07:23:00;;;;;;;5.27;4.80;;;27.60;99.90;;;;;;4952525;29;20200;-73
2022/07/30 07:25:26;;;;;;;7.70;4.50;;;27.70;99.90;;;;;;4952805;29;20404;-72
2022/07/30 07:27:51;;;;;;;7.90;4.63;;;27.70;99.90;;;;;;4952391;29;20443;-73
2022/07/30 07:30:17;;;;;;;7.13;4.50;;;27.90;99.90;;;;;;4951820;29;20180;-74
2022/07/30 07:32:42;;;;;;;8.67;3.67;;;27.90;99.90;;;;;;4951909;28;20215;-74
2022/07/30 07:35:08;;;;;;;4.53;4.23;;;28.00;99.90;;;;;;4949516;29;20176;-74
2022/07/30 07:37:34;;;;;;;8.90;4.43;;;27.90;99.90;;;;;;4933321;29;20654;-74
2022/07/30 07:39:59;;;;;;;6.70;4.87;;;28.00;99.90;;;;;;4938716;29;20639;-71
2022/07/30 07:42:25;;;;;;;4.27;3.83;;;28.10;99.90;;;;;;4936654;29;20201;-71
2022/07/30 07:44:50;;;;;;;5.43;3.80;;;28.30;99.90;;;;;;4952196;29;20290;-73
2022/07/30 07:47:16;;;;;;;7.23;4.03;;;28.30;99.90;;;;;;4951506;29;20180;-70
2022/07/30 07:49:41;;;;;;;4.13;3.40;;;28.40;99.90;;;;;;4945329;29;20187;-72
2022/07/30 07:52:07;;;;;;;5.43;3.57;;;28.50;99.90;;;;;;4951781;28;20214;-73
2022/07/30 07:54:32;;;;;;;6.53;4.63;;;28.60;99.90;;;;;;4952126;29;20263;-74
2022/07/30 07:56:58;;;;;;;10.60;4.80;;;28.60;99.90;;;;;;4951345;29;20562;-72
2022/07/30 07:59:23;;;;;;;4.77;3.77;;;28.60;99.90;;;;;;4951218;29;20181;-74
2022/07/30 08:01:49;;;;;;;7.90;2.90;;;28.80;99.90;;;;;;4948727;29;20241;-74
2022/07/30 08:04:15;;;;;;;3.97;3.60;;;29.00;99.90;;;;;;4950933;29;20181;-71
2022/07/30 08:06:41;;;;;;;4.37;3.00;;;29.00;99.90;;;;;;4950824;29;20412;-73
2022/07/30 08:09:06;;;;;;;4.53;4.10;;;29.20;99.90;;;;;;4951927;29;20187;-73
2022/07/30 08:11:32;;;;;;;4.00;3.63;;;29.40;99.90;;;;;;4951716;28;20195;-74
2022/07/30 08:13:57;;;;;;;3.70;3.40;;;29.50;99.90;;;;;;4951128;28;20181;-74
2022/07/30 08:16:23;;;;;;;3.47;3.13;;;29.80;99.90;;;;;;4944373;29;20196;-74
2022/07/30 08:18:49;;;;;;;3.97;3.37;;;29.70;99.90;;;;;;4942004;28;20193;-73
2022/07/30 08:21:14;;;;;;;9.17;3.70;;;29.80;99.90;;;;;;4946905;29;20287;-70
2022/07/30 08:23:40;;;;;;;6.90;2.80;;;30.00;99.90;;;;;;4955273;29;20248;-74
2022/07/30 08:26:05;;;;;;;5.77;3.30;;;30.00;99.90;;;;;;4960971;29;20187;-73
2022/07/30 08:28:31;;;;;;;4.23;3.23;;;30.00;99.90;;;;;;4961000;29;20172;-74
2022/07/30 08:30:57;;;;;;;3.20;2.90;;;29.90;99.90;;;;;;4955265;29;20657;-72
2022/07/30 08:33:22;;;;;;;3.57;2.90;;;30.10;99.90;;;;;;4949037;29;20263;-73
2022/07/30 08:35:48;;;;;;;5.23;3.60;;;30.10;99.90;;;;;;4942077;29;20189;-73
2022/07/30 08:38:13;;;;;;;4.93;2.50;;;30.00;99.90;;;;;;4936929;29;20178;-73
2022/07/30 08:40:39;;;;;;;2.80;2.10;;;30.30;99.90;;;;;;4954989;28;20271;-72
2022/07/30 08:43:06;;;;;;;3.73;1.87;;;30.90;99.90;;;;;;4954709;29;20204;-74
2022/07/30 08:45:33;;;;;;;6.17;3.23;;;31.40;98.80;;;;;;4943167;29;20261;-73
2022/07/30 08:48:00;;;;;;;2.40;2.20;;;31.80;97.90;;;;;;4935978;29;20825;-74
2022/07/30 08:50:26;;;;;;;6.03;2.40;;;31.70;96.90;;;;;;4951887;29;20420;-72
2022/07/30 08:52:54;;;;;;;3.80;3.03;;;31.80;96.10;;;;;;4954900;28;20479;-73
2022/07/30 08:55:21;;;;;;;8.50;2.87;;;31.70;94.00;;;;;;4946160;29;20439;-72
2022/07/30 08:57:47;;;;;;;4.40;2.70;;;31.70;94.60;;;;;;4935623;29;20480;-72
2022/07/30 09:00:13;;;;;;;2.40;2.13;;;31.50;94.80;;;;;;4943135;29;20443;-74
2022/07/30 09:02:39;;;;;;;3.67;2.00;;;32.00;95.20;;;;;;4950735;28;20452;-72
2022/07/30 09:05:05;;;;;;;4.30;3.00;;;32.30;94.50;;;;;;4952750;29;20455;-74
2022/07/30 09:07:34;;;;;;;7.63;2.53;;;32.50;93.10;;;;;;4951274;29;20567;-74
2022/07/30 09:09:59;;;;;;;5.03;2.67;;;32.70;93.20;;;;;;4954153;28;20427;-74
2022/07/30 09:12:37;;;;;;;2.70;2.50;;;32.70;92.20;;;;;;4946514;29;20440;-74
2022/07/30 09:15:07;;;;;;;6.83;3.53;;;32.70;92.70;;;;;;4948752;29;20176;-74
2022/07/30 09:17:55;;;;;;;3.13;2.50;;;32.50;92.30;;;;;;4943600;29;20421;-74
2022/07/30 09:20:24;;;;;;;2.53;2.30;;;32.80;92.50;;;;;;4952453;29;20764;-74
2022/07/30 09:22:52;;;;;;;4.63;2.40;;;33.00;91.70;;;;;;4954070;29;20861;-73
2022/07/30 09:25:43;;;;;;;2.87;2.67;;;32.30;91.60;;;;;;4954571;28;20424;-73
2022/07/30 09:28:10;;;;;;;3.93;2.60;;;31.80;92.40;;;;;;4953992;29;20420;-74
2022/07/30 09:30:52;;;;;;;3.20;2.90;;;31.40;91.70;;;;;;4945446;28;20532;-72
2022/07/30 09:33:36;;;;;;;3.07;2.73;;;31.10;92.00;;;;;;4952383;29;20459;-72
2022/07/30 09:36:04;;;;;;;3.93;2.53;;;30.20;93.20;;;;;;4937905;29;20413;-75
2022/07/30 09:38:51;;;;;;;6.87;2.90;;;30.60;93.40;;;;;;4954022;29;20424;-74
2022/07/30 09:41:21;;;;;;;4.40;2.20;;;31.30;92.60;;;;;;4953966;29;20463;-72
2022/07/30 09:43:48;;;;;;;4.20;2.10;;;31.60;92.40;;;;;;4953557;29;20460;-74
2022/07/30 09:46:15;;;;;;;2.00;1.90;;;31.60;91.90;;;;;;4954579;28;20421;-74
2022/07/30 09:48:41;;;;;;;4.30;2.27;;;31.90;91.30;;;;;;4954963;29;20408;-73
2022/07/30 09:51:07;;;;;;;5.20;2.40;;;31.40;90.70;;;;;;4954294;29;20432;-74
2022/07/30 09:53:34;;;;;;;2.40;2.20;;;31.50;91.20;;;;;;4954671;29;20424;-74
2022/07/30 09:56:00;;;;;;;4.00;1.97;;;32.00;90.20;;;;;;4955071;29;20661;-73
2022/07/30 09:58:39;;;;;;;5.33;2.40;;;32.60;90.00;;;;;;4954807;28;20455;-74
2022/07/30 10:01:05;;;;;;;3.43;1.93;;;32.90;88.90;;;;;;4953350;29;20495;-73
2022/07/30 10:03:30;;;;;;;3.77;2.57;;;33.00;88.30;;;;;;4952787;29;20480;-74
2022/07/30 10:05:58;;;;;;;3.97;1.80;;;33.20;86.50;;;;;;4947738;29;20178;-72
2022/07/30 10:08:46;;;;;;;1.87;1.77;;;33.10;86.50;;;;;;4950642;29;20252;-73
2022/07/30 10:11:15;;;;;;;4.77;2.40;;;31.90;86.70;;;;;;4950620;29;20440;-74
2022/07/30 10:13:41;;;;;;;6.03;2.90;;;31.00;87.10;;;;;;4948036;28;20467;-73
2022/07/30 10:16:07;;;;;;;3.63;2.10;;;31.20;87.80;;;;;;4953975;29;20435;-74
2022/07/30 10:18:34;;;;;;;3.57;2.20;;;31.60;89.00;;;;;;4953779;29;20522;-73
2022/07/30 10:21:01;;;;;;;2.80;1.83;;;31.70;87.50;;;;;;4952654;28;20491;-73
2022/07/30 10:23:31;;;;;;;1.93;1.83;;;32.10;88.70;;;;;;4954154;29;20460;-73
2022/07/30 10:26:00;;;;;;;1.57;1.47;;;32.40;87.90;;;;;;4953556;29;20512;-73
2022/07/30 10:28:27;;;;;;;2.13;1.90;;;32.50;88.20;;;;;;4954738;28;20427;-74
2022/07/30 10:30:54;;;;;;;1.93;1.77;;;33.00;87.00;;;;;;4953797;28;20954;-74
2022/07/30 10:33:29;;;;;;;3.50;1.47;;;33.30;84.80;;;;;;4951427;28;20528;-74
2022/07/30 10:35:55;;;;;;;6.30;2.10;;;33.60;85.90;;;;;;4939640;29;20469;-74
2022/07/30 10:38:27;;;;;;;2.17;1.97;;;34.00;83.10;;;;;;4950919;29;20422;-74
2022/07/30 10:41:04;;;;;;;1.80;1.70;;;34.20;82.20;;;;;;4946227;28;20843;-73
2022/07/30 10:43:51;;;;;;;9.90;2.20;;;34.10;80.70;;;;;;4938403;29;20460;-74
2022/07/30 10:46:41;;;;;;;2.30;1.87;;;33.30;79.80;;;;;;4952972;29;20428;-71
2022/07/30 10:49:11;;;;;;;3.03;1.80;;;32.10;81.70;;;;;;4944987;28;20416;-73
2022/07/30 10:51:47;;;;;;;4.03;2.00;;;31.50;84.70;;;;;;4952473;28;20807;-71
2022/07/30 10:54:32;;;;;;;2.97;2.10;;;31.60;85.60;;;;;;4952881;28;20913;-73
2022/07/30 10:57:10;;;;;;;2.47;1.80;;;31.80;84.20;;;;;;4953009;29;20447;-72
2022/07/30 10:59:57;;;;;;;3.80;1.87;;;31.70;83.50;;;;;;4952839;28;20867;-72
2022/07/30 11:02:25;;;;;;;3.03;2.17;;;31.50;83.30;;;;;;4942536;28;20476;-73
2022/07/30 11:05:16;;;;;;;2.37;2.07;;;31.30;85.00;;;;;;4948081;28;20444;-74
2022/07/30 11:07:41;;;;;;;2.03;1.80;;;30.50;86.00;;;;;;4939451;29;20939;-72
2022/07/30 11:10:39;;;;;;;1.63;1.53;;;30.20;88.80;;;;;;4944918;29;20636;-73
2022/07/30 11:13:06;;;;;;;6.63;2.07;;;30.30;87.60;;;;;;4952894;29;20180;-72
2022/07/30 11:15:53;;;;;;;3.83;2.17;;;29.70;86.20;;;;;;4952394;29;20452;-72
2022/07/30 11:18:20;;;;;;;9.20;2.77;;;29.50;88.60;;;;;;4944219;29;20856;-72
2022/07/30 11:21:17;;;;;;;4.63;2.30;;;29.90;89.00;;;;;;4951705;28;20467;-73
2022/07/30 11:23:45;;;;;;;4.33;2.10;;;30.40;87.00;;;;;;4952579;29;20571;-73
2022/07/30 11:26:31;;;;;;;3.03;1.70;;;31.00;86.00;;;;;;4952373;28;20416;-73
2022/07/30 11:28:57;;;;;;;6.50;1.67;;;31.50;82.80;;;;;;4941724;29;20479;-71
2022/07/30 11:31:34;;;;;;;2.17;1.67;;;31.60;83.60;;;;;;4951683;29;20863;-73
2022/07/30 11:34:18;;;;;;;3.80;2.00;;;31.70;82.40;;;;;;4953228;29;20172;-72
2022/07/30 11:37:13;;;;;;;2.60;1.80;;;31.80;83.10;;;;;;4952572;29;20454;-72
2022/07/30 11:39:54;;;;;;;6.03;1.90;;;31.90;81.10;;;;;;4875748;29;20953;-73
2022/07/30 11:42:24;;;;;;;2.90;1.73;;;32.00;81.50;;;;;;4840305;28;20979;-78
2022/07/30 11:44:50;;;;;;;2.03;1.70;;;32.10;80.30;;;;;;4836672;29;20799;-74
2022/07/30 11:47:17;;;;;;;6.50;1.43;;;32.20;80.40;;;;;;4835456;28;20910;-76
2022/07/30 11:52:57;;;;;;;3.33;1.50;;;32.10;81.40;;;;;;4870316;28;20789;-77
2022/07/30 11:55:43;;;;;;;3.20;2.20;;;31.90;82.00;;;;;;4841156;29;20780;-77
2022/07/30 11:58:24;;;;;;;2.60;1.80;;;31.60;80.90;;;;;;4831465;29;20610;-78
2022/07/30 12:00:51;;;;;;;4.17;1.60;;;31.40;82.30;;;;;;4820038;29;20956;-77
2022/07/30 12:03:18;;;;;;;2.27;1.57;;;31.50;81.70;;;;;;4832372;29;20814;-74
2022/07/30 12:05:45;;;;;;;6.97;1.90;;;31.60;81.10;;;;;;4841985;29;21081;-76
2022/07/30 12:08:15;;;;;;;5.77;1.57;;;31.40;81.50;;;;;;4838897;29;20857;-76
2022/07/30 12:10:42;;;;;;;3.50;1.30;;;31.50;81.00;;;;;;4835123;28;20779;-77
2022/07/30 12:13:17;;;;;;;1.80;1.30;;;31.60;81.00;;;;;;4835041;29;21017;-76
2022/07/30 12:15:46;;;;;;;2.60;1.80;;;31.20;79.20;;;;;;4833660;29;20797;-76
2022/07/30 12:18:13;;;;;;;3.53;1.37;;;30.80;81.10;;;;;;4835560;29;20726;-76
2022/07/30 12:20:45;;;;;;;2.03;1.40;;;30.60;82.00;;;;;;4841061;28;20980;-74
2022/07/30 12:23:14;;;;;;;3.13;1.47;;;30.60;81.90;;;;;;4857637;29;21181;-76
2022/07/30 12:25:42;;;;;;;1.97;1.70;;;30.60;81.40;;;;;;4835066;29;20601;-78
2022/07/30 12:28:19;;;;;;;4.47;1.60;;;30.30;81.20;;;;;;4851915;29;20602;-83
2022/07/30 12:30:45;;;;;;;3.53;2.30;;;30.20;81.80;;;;;;4840175;29;21179;-79
2022/07/30 12:33:11;;;;;;;3.53;1.40;;;30.30;83.90;;;;;;4832094;29;20792;-77
2022/07/30 12:35:51;;;;;;;4.97;1.73;;;30.40;83.10;;;;;;4833862;29;20506;-79
2022/07/30 12:38:19;;;;;;;2.40;1.80;;;30.50;83.50;;;;;;4841073;29;20559;-78
2022/07/30 12:40:53;;;;;;;5.23;1.83;;;30.50;83.40;;;;;;4810389;28;20956;-76
2022/07/30 12:43:45;;;;;;;3.80;1.57;;;30.60;81.40;;;;;;4824382;29;20909;-77
2022/07/30 12:46:35;;;;;;;1.70;1.60;;;30.40;80.10;;;;;;4832247;29;20798;-78
2022/07/30 12:49:03;;;;;;;4.23;1.63;;;30.40;81.20;;;;;;4834412;29;20778;-75
2022/07/30 12:51:32;;;;;;;1.83;1.73;;;30.40;81.30;;;;;;4835932;29;21018;-76
2022/07/30 12:53:59;;;;;;;3.50;1.53;;;30.60;81.30;;;;;;4831267;29;21335;-75
2022/07/30 12:56:27;;;;;;;1.70;1.60;;;30.50;81.20;;;;;;4846690;29;20631;-76
2022/07/30 12:58:56;;;;;;;1.83;1.43;;;30.50;82.60;;;;;;4832861;28;20785;-76
2022/07/30 13:01:42;;;;;;;7.30;1.67;;;30.30;80.90;;;;;;4834989;29;20938;-76
2022/07/30 13:04:09;;;;;;;2.40;1.57;;;29.90;79.90;;;;;;4835077;29;20981;-76
2022/07/30 13:06:36;;;;;;;2.20;1.80;;;29.50;82.10;;;;;;4835424;29;21121;-76
2022/07/30 13:09:03;;;;;;;1.47;1.40;;;29.20;83.00;;;;;;4841850;29;20934;-75
2022/07/30 13:11:43;;;;;;;2.17;1.60;;;29.30;85.00;;;;;;4835028;29;20944;-76
2022/07/30 13:17:34;;;;;;;2.80;1.90;;;29.00;83.40;;;;;;4797174;29;20766;-76
2022/07/30 13:20:00;;;;;;;2.40;1.70;;;29.00;84.00;;;;;;4836219;29;20794;-75
2022/07/30 13:22:26;;;;;;;2.27;1.53;;;29.20;84.60;;;;;;4892799;29;20204;-75
2022/07/30 13:24:51;;;;;;;2.63;1.60;;;29.50;84.80;;;;;;4953696;29;20463;-75
2022/07/30 13:27:17;;;;;;;1.63;1.53;;;29.70;83.60;;;;;;4952715;29;20553;-74
2022/07/30 13:29:43;;;;;;;3.17;1.80;;;29.70;84.10;;;;;;4945582;29;20243;-75
2022/07/30 13:32:08;;;;;;;4.73;1.73;;;29.80;83.90;;;;;;4954025;28;20713;-75
2022/07/30 13:34:34;;;;;;;2.23;2.03;;;30.00;82.60;;;;;;4953524;29;20181;-75
2022/07/30 13:36:59;;;;;;;2.10;1.60;;;30.00;83.30;;;;;;4953168;29;20272;-75
2022/07/30 13:39:25;;;;;;;2.47;1.67;;;29.90;82.50;;;;;;4953078;29;20244;-75
2022/07/30 13:41:51;;;;;;;1.77;1.67;;;29.70;82.80;;;;;;4953213;28;20665;-75
2022/07/30 13:44:17;;;;;;;1.67;1.57;;;29.50;83.30;;;;;;4953237;29;20181;-74
2022/07/30 13:46:42;;;;;;;1.80;1.70;;;29.50;83.70;;;;;;4953249;29;20424;-75
2022/07/30 13:49:09;;;;;;;1.90;1.80;;;29.50;84.40;;;;;;4953009;29;20184;-76
2022/07/30 13:51:35;;;;;;;1.70;1.60;;;29.60;83.90;;;;;;4951748;28;20215;-74
2022/07/30 13:54:00;;;;;;;1.70;1.60;;;29.60;84.10;;;;;;4953362;29;20420;-74
2022/07/30 13:56:26;;;;;;;2.97;1.57;;;29.50;83.90;;;;;;4953260;29;20207;-74
2022/07/30 13:58:51;;;;;;;1.60;1.50;;;29.30;84.90;;;;;;4952968;29;20220;-74
2022/07/30 14:01:17;;;;;;;4.10;1.90;;;29.20;84.40;;;;;;4936006;29;20200;-74
2022/07/30 14:03:42;;;;;;;12.93;1.60;;;29.20;85.00;;;;;;4937016;29;20307;-74
2022/07/30 14:06:08;;;;;;;1.67;1.57;;;29.20;84.40;;;;;;4954640;28;20184;-75
2022/07/30 14:08:33;;;;;;;3.77;1.53;;;29.30;84.70;;;;;;4952777;29;20176;-74
2022/07/30 14:10:59;;;;;;;1.80;1.70;;;29.40;84.40;;;;;;4951403;28;20234;-74
2022/07/30 14:13:24;;;;;;;2.00;1.90;;;29.20;86.00;;;;;;4936598;29;20259;-75
2022/07/30 14:15:50;;;;;;;2.20;1.47;;;29.20;85.50;;;;;;4937166;29;20649;-74
2022/07/30 14:18:16;;;;;;;2.50;1.30;;;29.00;84.20;;;;;;4952931;29;20251;-73
2022/07/30 14:20:41;;;;;;;2.13;1.83;;;29.00;85.30;;;;;;4951952;28;20279;-74
2022/07/30 14:23:07;;;;;;;3.03;2.30;;;29.10;85.20;;;;;;4954230;28;20274;-75
2022/07/30 14:25:33;;;;;;;1.93;1.67;;;29.20;85.90;;;;;;4952406;29;20558;-74
2022/07/30 14:27:59;;;;;;;1.60;1.50;;;29.20;85.40;;;;;;4952749;29;20424;-74
2022/07/30 14:30:24;;;;;;;1.70;1.60;;;29.30;85.60;;;;;;4952346;29;20185;-74